createdAt,value
2018-06-19T00:02:06.408Z,15.4
2018-06-19T00:07:35.995Z,15.3
2018-06-19T00:13:05.665Z,15.3
2018-06-19T00:18:34.269Z,15.3
2018-06-19T00:24:03.856Z,15.3
2018-06-19T00:29:32.488Z,15.3
2018-06-19T00:35:01.028Z,15.3
2018-06-19T00:40:30.651Z,15.3
2018-06-19T00:45:59.263Z,15.3
2018-06-19T00:51:28.874Z,15.3
2018-06-19T00:56:58.477Z,15.3
2018-06-19T01:02:28.152Z,15.3
2018-06-19T01:07:56.680Z,15.3
2018-06-19T01:13:25.320Z,15.3
2018-06-19T01:18:54.914Z,15.3
2018-06-19T01:24:24.517Z,15.3
2018-06-19T01:29:53.128Z,15.3
2018-06-19T01:35:22.738Z,15.3
2018-06-19T01:40:52.381Z,15.3
2018-06-19T01:46:20.930Z,15.4
2018-06-19T01:51:50.671Z,15.4
2018-06-19T01:57:19.238Z,15.4
2018-06-19T02:08:18.346Z,15.5
2018-06-19T02:13:46.989Z,15.5
2018-06-19T02:19:16.685Z,15.5
2018-06-19T02:24:45.278Z,15.5
2018-06-19T02:30:13.872Z,15.6
2018-06-19T02:35:44.345Z,15.6
2018-06-19T02:41:12.098Z,15.6
2018-06-19T02:46:40.713Z,15.6
2018-06-19T02:52:10.385Z,15.6
2018-06-19T02:57:38.972Z,15.6
2018-06-19T03:03:07.584Z,15.6
2018-06-19T03:08:37.295Z,15.6
2018-06-19T03:14:05.814Z,15.6
2018-06-19T03:19:35.482Z,15.6
2018-06-19T03:25:04.047Z,15.7
2018-06-19T03:30:33.667Z,15.7
2018-06-19T03:36:03.331Z,15.7
2018-06-19T03:41:31.987Z,15.7
2018-06-19T03:47:01.603Z,15.7
2018-06-19T03:52:31.304Z,15.7
2018-06-19T03:57:59.845Z,15.7
2018-06-19T04:03:29.488Z,15.8
2018-06-19T04:08:58.104Z,15.8
2018-06-19T04:14:27.747Z,15.9
2018-06-19T04:19:57.426Z,15.9
2018-06-19T04:25:26.052Z,16
2018-06-19T04:30:54.695Z,16
2018-06-19T04:36:23.419Z,16
2018-06-19T04:41:53.045Z,16
2018-06-19T04:47:22.662Z,16
2018-06-19T04:52:51.403Z,16
2018-06-19T04:58:21.039Z,16
2018-06-19T05:03:50.699Z,16
2018-06-19T05:09:19.408Z,16
2018-06-19T05:14:48.931Z,16
2018-06-19T05:20:17.755Z,16
2018-06-19T05:25:46.354Z,16
2018-06-19T05:31:15.001Z,16.1
2018-06-19T05:36:43.560Z,16.1
2018-06-19T05:42:12.272Z,16.1
2018-06-19T05:47:40.849Z,16.1
2018-06-19T05:53:10.558Z,16.2
2018-06-19T05:58:39.224Z,16.3
2018-06-19T06:04:08.978Z,16.4
2018-06-19T06:09:38.683Z,16.4
2018-06-19T06:15:07.367Z,16.5
2018-06-19T06:20:36.047Z,16.6
2018-06-19T06:26:04.766Z,16.7
2018-06-19T06:31:34.490Z,16.8
2018-06-19T06:37:03.358Z,17
2018-06-19T06:42:33.006Z,17.2
2018-06-19T06:48:02.223Z,17.2
2018-06-19T06:53:31.656Z,17.2
2018-06-19T06:59:01.442Z,17.1
2018-06-19T07:04:31.113Z,17.1
2018-06-19T07:10:01.042Z,17
2018-06-19T07:15:29.621Z,17
2018-06-19T07:20:58.568Z,17.1
2018-06-19T07:26:27.150Z,17.2
2018-06-19T07:31:56.088Z,17.3
2018-06-19T07:37:25.749Z,17.3
2018-06-19T07:42:54.497Z,17.3
2018-06-19T07:48:23.277Z,17.2
2018-06-19T07:53:53.069Z,17.2
2018-06-19T07:59:22.865Z,17.1
2018-06-19T08:04:51.563Z,17.2
2018-06-19T08:10:21.362Z,17.2
2018-06-19T08:15:50.156Z,17.1
2018-06-19T08:21:19.979Z,17.1
2018-06-19T08:26:49.674Z,17
2018-06-19T08:32:18.437Z,17.1
2018-06-19T08:37:48.189Z,17.3
2018-06-19T08:43:17.014Z,17.3
2018-06-19T08:48:45.790Z,17.5
2018-06-19T08:54:14.669Z,17.9
2018-06-19T08:59:44.535Z,18.2
2018-06-19T09:05:13.433Z,18.5
2018-06-19T09:10:43.347Z,18.7
2018-06-19T09:16:13.359Z,18.7
2018-06-19T09:21:42.209Z,18.6
2018-06-19T09:27:11.076Z,18.4
2018-06-19T09:32:40.024Z,18.3
2018-06-19T09:38:08.909Z,18.3
2018-06-19T09:43:38.781Z,18.3
2018-06-19T09:49:08.810Z,18.4
2018-06-19T09:54:38.645Z,18.5
2018-06-19T10:00:07.554Z,18.8
2018-06-19T10:05:37.806Z,19.1
2018-06-19T10:11:06.555Z,19.1
2018-06-19T10:27:36.680Z,18.6
2018-06-19T10:33:06.272Z,18.5
2018-06-19T10:38:35.178Z,18.4
2018-06-19T10:44:05.166Z,18.5
2018-06-19T10:49:34.057Z,18.7
2018-06-19T10:55:04.084Z,18.7
2018-06-19T11:00:33.030Z,18.7
2018-06-19T11:06:02.948Z,18.7
2018-06-19T11:11:31.884Z,18.8
2018-06-19T11:17:00.836Z,18.8
2018-06-19T11:22:30.760Z,18.8
2018-06-19T11:28:00.892Z,18.9
2018-06-19T11:33:30.761Z,18.9
2018-06-19T11:38:59.705Z,18.9
2018-06-19T11:44:28.646Z,19
2018-06-19T11:49:58.707Z,19.1
2018-06-19T11:55:27.672Z,19.3
2018-06-19T12:00:57.668Z,19.5
2018-06-19T12:06:27.792Z,19.7
2018-06-19T12:11:57.866Z,19.9
2018-06-19T12:17:27.047Z,19.8
2018-06-19T12:22:56.152Z,19.6
2018-06-19T12:28:26.259Z,19.4
2018-06-19T12:33:55.015Z,19.2
2018-06-19T12:39:24.015Z,19.1
2018-06-19T12:44:53.057Z,18.9
2018-06-19T12:50:22.038Z,18.9
2018-06-19T12:55:52.004Z,18.9
2018-06-19T13:01:20.981Z,19
2018-06-19T13:06:49.963Z,19
2018-06-19T13:12:18.929Z,18.9
2018-06-19T13:17:47.955Z,18.9
2018-06-19T13:23:17.935Z,18.8
2018-06-19T13:28:47.839Z,18.8
2018-06-19T13:34:16.958Z,18.8
2018-06-19T13:39:45.792Z,18.8
2018-06-19T13:45:14.730Z,18.7
2018-06-19T13:50:43.645Z,18.7
2018-06-19T13:56:13.567Z,18.6
2018-06-19T14:01:43.585Z,18.5
2018-06-19T14:07:12.484Z,18.6
2018-06-19T14:12:41.465Z,18.7
2018-06-19T14:18:11.393Z,18.7
2018-06-19T14:23:41.400Z,18.8
2018-06-19T14:29:10.354Z,18.8
2018-06-19T14:34:39.359Z,18.9
2018-06-19T14:40:08.699Z,18.9
2018-06-19T14:45:37.460Z,18.8
2018-06-19T14:51:06.248Z,18.8
2018-06-19T14:56:35.188Z,18.7
2018-06-19T15:02:04.205Z,18.6
2018-06-19T15:07:34.103Z,18.4
2018-06-19T15:13:03.053Z,18.2
2018-06-19T15:18:32.990Z,18.1
2018-06-19T15:24:02.837Z,18.1
2018-06-19T15:29:31.779Z,18.1
2018-06-19T15:35:01.655Z,18.1
2018-06-19T15:40:30.574Z,18.1
2018-06-19T15:40:31.468Z,18.1
2018-06-19T15:46:00.429Z,18.1
2018-06-19T15:51:30.384Z,18.1
2018-06-19T15:56:59.309Z,18
2018-06-19T16:02:28.277Z,18
2018-06-19T16:07:58.026Z,18
2018-06-19T16:13:26.942Z,17.9
2018-06-19T16:18:56.781Z,17.9
2018-06-19T16:24:25.699Z,17.9
2018-06-19T16:29:55.696Z,17.8
2018-06-19T16:35:25.407Z,17.7
2018-06-19T16:40:55.423Z,17.8
2018-06-19T16:46:24.209Z,18
2018-06-19T16:51:54.148Z,18.1
2018-06-19T16:57:23.087Z,18.2
2018-06-19T17:02:51.977Z,18.2
2018-06-19T17:08:20.890Z,18.3
2018-06-19T17:13:50.908Z,18.3
2018-06-19T17:19:19.721Z,18.2
2018-06-19T17:24:49.646Z,18
2018-06-19T17:30:18.679Z,18.1
2018-06-19T17:35:48.416Z,18
2018-06-19T17:41:17.267Z,17.8
2018-06-19T20:42:24.794Z,14.9
2018-06-19T21:17:16.638Z,14.6
2018-06-19T21:17:21.056Z,14.4
2018-06-19T21:31:38.414Z,14.4
2018-06-19T21:31:45.721Z,14.3
2018-06-19T21:31:46.555Z,14.4
2018-06-19T22:41:43.976Z,13.5
2018-06-19T23:21:28.258Z,13
2018-06-19T23:26:51.143Z,13.1
2018-06-19T23:32:19.456Z,13.1
2018-06-19T23:37:47.819Z,13.2
2018-06-19T23:43:16.334Z,13.3
2018-06-19T23:48:44.725Z,13.3
2018-06-19T23:54:14.109Z,13.4
2018-06-19T23:59:42.547Z,13.4
